createdAt,value
2023-03-31T00:00:58.116Z,19.29
2023-03-31T00:03:25.437Z,19.76
2023-03-31T00:06:00.428Z,19.94
2023-03-31T00:08:35.741Z,19.24
2023-03-31T00:11:07.244Z,20.38
2023-03-31T00:13:34.999Z,20.70
2023-03-31T00:16:05.576Z,21.02
2023-03-31T00:18:33.334Z,21.11
2023-03-31T00:21:24.399Z,21.32
2023-03-31T00:24:01.596Z,19.91
2023-03-31T00:26:29.608Z,21.16
2023-03-31T00:28:57.638Z,20.35
2023-03-31T00:31:25.359Z,20.68
2023-03-31T00:33:54.767Z,21.33
2023-03-31T00:36:27.342Z,21.93
2023-03-31T00:39:00.827Z,21.65
2023-03-31T00:41:29.849Z,22.09
2023-03-31T00:44:22.833Z,22.10
2023-03-31T00:46:55.265Z,22.45
2023-03-31T00:49:41.498Z,22.46
2023-03-31T00:52:23.439Z,22.48
2023-03-31T00:55:20.234Z,22.25
2023-03-31T00:57:48.033Z,21.88
2023-03-31T01:00:16.489Z,21.60
2023-03-31T01:02:52.133Z,21.60
2023-03-31T01:05:47.286Z,21.60
2023-03-31T01:08:20.120Z,21.42
2023-03-31T01:10:55.893Z,21.27
2023-03-31T01:13:24.696Z,21.30
2023-03-31T01:15:52.021Z,20.99
2023-03-31T01:18:22.775Z,20.45
2023-03-31T01:21:30.619Z,20.82
2023-03-31T01:24:35.807Z,21.32
2023-03-31T01:27:26.110Z,20.61
2023-03-31T01:30:38.120Z,20.91
2023-03-31T01:33:21.894Z,19.84
2023-03-31T01:36:04.454Z,19.64
2023-03-31T01:39:19.010Z,19.82
2023-03-31T01:42:01.932Z,20.56
2023-03-31T01:44:29.250Z,20.71
2023-03-31T01:47:18.230Z,21.00
2023-03-31T01:50:08.878Z,20.16
2023-03-31T01:53:03.680Z,20.85
2023-03-31T01:55:39.330Z,19.78
2023-03-31T01:58:32.859Z,20.50
2023-03-31T02:01:08.521Z,19.78
2023-03-31T02:03:47.227Z,20.12
2023-03-31T02:06:26.331Z,19.20
2023-03-31T02:09:06.436Z,19.60
2023-03-31T02:11:34.904Z,20.60
2023-03-31T02:14:05.960Z,20.09
2023-03-31T02:16:37.955Z,20.23
2023-03-31T02:19:06.104Z,20.78
2023-03-31T02:21:36.459Z,20.26
2023-03-31T02:24:13.143Z,19.88
2023-03-31T02:26:55.293Z,19.86
2023-03-31T02:29:23.256Z,19.34
2023-03-31T02:32:04.080Z,20.23
2023-03-31T02:34:31.524Z,19.37
2023-03-31T02:36:59.225Z,19.44
2023-03-31T02:39:33.162Z,19.10
2023-03-31T02:42:06.995Z,19.17
2023-03-31T02:44:35.667Z,18.79
2023-03-31T02:47:10.901Z,19.68
2023-03-31T02:49:42.112Z,19.83
2023-03-31T02:52:45.867Z,20.54
2023-03-31T02:55:32.261Z,20.73
2023-03-31T02:58:30.528Z,20.12
2023-03-31T03:01:44.549Z,21.20
2023-03-31T03:05:08.425Z,20.63
2023-03-31T03:07:46.430Z,20.81
2023-03-31T03:10:28.836Z,20.38
2023-03-31T03:12:58.841Z,20.88
2023-03-31T03:15:46.272Z,20.66
2023-03-31T03:18:14.226Z,19.83
2023-03-31T03:20:43.441Z,20.38
2023-03-31T03:23:10.833Z,20.46
2023-03-31T03:25:38.661Z,20.14
2023-03-31T03:28:05.786Z,19.65
2023-03-31T03:30:32.732Z,20.26
2023-03-31T03:33:00.556Z,20.44
2023-03-31T03:35:27.953Z,20.66
2023-03-31T03:37:55.353Z,20.75
2023-03-31T03:40:22.803Z,20.35
2023-03-31T03:42:50.228Z,20.30
2023-03-31T03:45:17.696Z,19.81
2023-03-31T03:47:45.216Z,20.34
2023-03-31T03:50:15.933Z,20.36
2023-03-31T03:52:44.218Z,20.76
2023-03-31T03:55:12.205Z,20.70
2023-03-31T03:57:39.617Z,20.57
2023-03-31T04:00:12.294Z,20.63
2023-03-31T04:02:40.374Z,20.26
2023-03-31T04:05:08.114Z,20.83
2023-03-31T04:07:35.608Z,20.96
2023-03-31T04:10:02.970Z,20.75
2023-03-31T04:12:30.340Z,20.53
2023-03-31T04:14:57.694Z,19.93
2023-03-31T04:17:32.631Z,20.33
2023-03-31T04:20:09.882Z,19.60
2023-03-31T04:22:41.031Z,19.26
2023-03-31T04:25:14.832Z,19.36
2023-03-31T04:27:50.597Z,19.28
2023-03-31T04:30:24.547Z,19.18
2023-03-31T04:33:00.718Z,19.46
2023-03-31T04:35:48.669Z,19.31
2023-03-31T04:38:24.243Z,19.79
2023-03-31T04:40:54.349Z,20.15
2023-03-31T04:43:21.926Z,19.82
2023-03-31T04:45:50.573Z,19.95
2023-03-31T04:48:20.921Z,20.33
2023-03-31T04:50:48.246Z,20.10
2023-03-31T04:53:15.595Z,20.02
2023-03-31T04:55:42.886Z,20.29
2023-03-31T04:58:10.320Z,20.64
2023-03-31T05:00:37.665Z,20.41
2023-03-31T05:03:05.089Z,19.67
2023-03-31T05:05:32.654Z,20.27
2023-03-31T05:08:00.215Z,20.42
2023-03-31T05:10:27.530Z,20.04
2023-03-31T05:12:54.917Z,19.86
2023-03-31T05:15:22.340Z,20.28
2023-03-31T05:17:49.829Z,19.84
2023-03-31T05:20:17.633Z,20.13
2023-03-31T05:22:44.978Z,19.35
2023-03-31T05:25:18.710Z,19.33
2023-03-31T05:27:49.991Z,19.28
2023-03-31T05:30:18.218Z,18.69
2023-03-31T05:32:45.611Z,19.57
2023-03-31T05:35:13.005Z,19.44
2023-03-31T05:37:40.366Z,19.28
2023-03-31T05:40:09.220Z,19.33
2023-03-31T05:42:36.818Z,19.02
2023-03-31T05:45:06.007Z,19.18
2023-03-31T05:47:34.473Z,18.78
2023-03-31T05:50:03.984Z,19.30
2023-03-31T05:52:32.897Z,19.48
2023-03-31T05:55:00.332Z,19.78
2023-03-31T05:57:27.849Z,19.50
2023-03-31T05:59:55.441Z,22.71
2023-03-31T06:02:22.917Z,23.19
2023-03-31T06:04:50.369Z,36.29
2023-03-31T06:07:17.940Z,33.63
2023-03-31T06:09:46.629Z,32.10
2023-03-31T06:12:14.179Z,30.49
2023-03-31T06:14:41.578Z,29.45
2023-03-31T06:17:08.925Z,28.68
2023-03-31T06:19:36.410Z,28.11
2023-03-31T06:22:03.741Z,28.14
2023-03-31T06:24:31.057Z,27.92
2023-03-31T06:26:58.704Z,23.56
2023-03-31T06:29:27.222Z,22.63
2023-03-31T06:31:54.913Z,23.10
2023-03-31T06:34:22.549Z,23.60
2023-03-31T06:36:49.914Z,23.54
2023-03-31T06:39:17.261Z,23.42
2023-03-31T06:41:44.680Z,23.91
2023-03-31T06:44:19.333Z,23.59
2023-03-31T06:46:46.756Z,23.45
2023-03-31T06:49:14.128Z,23.52
2023-03-31T06:51:41.427Z,23.19
2023-03-31T06:54:08.774Z,22.76
2023-03-31T06:56:36.113Z,22.78
2023-03-31T06:59:03.451Z,22.37
2023-03-31T07:01:31.592Z,22.84
2023-03-31T07:03:59.138Z,22.51
2023-03-31T07:06:26.539Z,21.96
2023-03-31T07:08:53.914Z,22.37
2023-03-31T07:11:21.347Z,21.27
2023-03-31T07:13:48.757Z,21.78
2023-03-31T07:16:16.262Z,21.48
2023-03-31T07:18:45.225Z,19.96
2023-03-31T07:21:12.812Z,21.10
2023-03-31T07:23:40.599Z,20.80
2023-03-31T07:26:08.783Z,20.84
2023-03-31T07:28:36.550Z,21.04
2023-03-31T07:31:10.335Z,20.77
2023-03-31T07:33:37.731Z,21.30
2023-03-31T07:36:13.401Z,21.37
2023-03-31T07:38:43.494Z,20.98
2023-03-31T07:41:17.098Z,21.62
2023-03-31T07:43:45.067Z,19.77
2023-03-31T07:46:25.456Z,21.30
2023-03-31T07:48:53.799Z,19.23
2023-03-31T07:51:24.980Z,19.74
2023-03-31T07:53:52.639Z,18.71
2023-03-31T07:56:22.603Z,20.40
2023-03-31T07:58:51.423Z,19.45
2023-03-31T08:01:21.808Z,20.03
2023-03-31T08:03:49.854Z,20.51
2023-03-31T08:06:22.542Z,20.48
2023-03-31T08:08:50.741Z,21.02
2023-03-31T08:11:21.030Z,20.10
2023-03-31T08:13:48.558Z,20.62
2023-03-31T08:16:16.120Z,19.23
2023-03-31T08:18:43.609Z,20.48
2023-03-31T08:21:11.071Z,21.17
2023-03-31T08:23:38.442Z,19.99
2023-03-31T08:26:21.818Z,20.35
2023-03-31T08:28:50.982Z,20.56
2023-03-31T08:31:21.370Z,20.08
2023-03-31T08:33:48.835Z,19.18
2023-03-31T08:36:16.404Z,19.65
2023-03-31T08:38:48.014Z,19.73
2023-03-31T08:41:51.368Z,22.10
2023-03-31T08:44:42.509Z,21.13
2023-03-31T08:47:16.069Z,20.92
2023-03-31T08:50:05.651Z,20.47
2023-03-31T08:53:03.878Z,20.14
2023-03-31T08:55:52.906Z,21.43
2023-03-31T08:58:45.724Z,21.36
2023-03-31T09:01:26.704Z,21.03
2023-03-31T09:04:25.957Z,21.25
2023-03-31T09:07:29.629Z,21.16
2023-03-31T09:10:09.282Z,21.25
2023-03-31T09:13:09.552Z,20.78
2023-03-31T09:16:11.877Z,21.31
2023-03-31T09:18:46.590Z,21.05
2023-03-31T09:21:33.095Z,22.83
2023-03-31T09:24:03.724Z,20.19
2023-03-31T09:26:52.990Z,21.20
2023-03-31T09:29:41.021Z,21.18
2023-03-31T09:32:23.204Z,21.45
2023-03-31T09:35:18.492Z,22.95
2023-03-31T09:37:45.886Z,21.39
2023-03-31T09:40:21.570Z,21.71
2023-03-31T09:42:58.531Z,21.12
2023-03-31T09:45:26.119Z,20.56
2023-03-31T09:47:57.708Z,20.88
2023-03-31T09:50:26.699Z,20.61
2023-03-31T09:52:58.784Z,21.91
2023-03-31T09:55:40.337Z,22.17
2023-03-31T09:58:13.360Z,21.35
2023-03-31T10:01:04.286Z,21.59
2023-03-31T10:03:36.682Z,20.35
2023-03-31T10:06:10.848Z,21.78
2023-03-31T10:08:54.178Z,21.73
2023-03-31T10:11:21.935Z,20.80
2023-03-31T10:14:13.353Z,21.04
2023-03-31T10:16:50.610Z,21.28
2023-03-31T10:19:29.586Z,21.81
2023-03-31T10:22:22.889Z,21.08
2023-03-31T10:24:52.329Z,22.62
2023-03-31T10:27:25.820Z,21.55
2023-03-31T10:29:56.948Z,20.43
2023-03-31T10:32:39.189Z,22.17
2023-03-31T10:35:30.722Z,23.12
2023-03-31T10:38:06.588Z,22.64
2023-03-31T10:40:36.327Z,23.22
2023-03-31T10:43:17.052Z,22.24
2023-03-31T10:45:45.344Z,22.03
2023-03-31T10:48:40.804Z,22.86
2023-03-31T10:51:19.426Z,21.48
2023-03-31T10:53:53.049Z,22.39
2023-03-31T10:56:43.937Z,23.21
2023-03-31T10:59:31.087Z,21.98
2023-03-31T11:02:41.181Z,22.35
2023-03-31T11:05:59.672Z,21.51
2023-03-31T11:08:42.043Z,20.75
2023-03-31T11:11:56.254Z,20.94
2023-03-31T11:14:50.757Z,22.19
2023-03-31T11:17:41.226Z,21.49
2023-03-31T11:20:12.705Z,20.42
2023-03-31T11:23:16.651Z,21.19
2023-03-31T11:26:31.015Z,21.39
2023-03-31T11:29:47.752Z,21.78
2023-03-31T11:32:39.616Z,21.14
2023-03-31T11:35:15.986Z,20.12
2023-03-31T11:38:18.415Z,18.21
2023-03-31T11:41:02.525Z,20.69
2023-03-31T11:43:32.783Z,21.58
2023-03-31T11:46:08.130Z,29.91
2023-03-31T11:48:38.757Z,28.40
2023-03-31T11:51:10.391Z,30.54
2023-03-31T11:53:38.508Z,29.41
2023-03-31T11:56:07.583Z,28.77
2023-03-31T11:59:08.130Z,27.44
2023-03-31T12:01:46.319Z,28.14
2023-03-31T12:04:38.490Z,27.64
2023-03-31T12:07:28.366Z,30.43
2023-03-31T12:10:47.519Z,32.64
2023-03-31T12:13:27.851Z,31.39
2023-03-31T12:16:11.583Z,34.79
2023-03-31T12:18:44.984Z,35.07
2023-03-31T12:21:12.357Z,32.29
2023-03-31T12:23:44.215Z,31.71
2023-03-31T12:26:27.989Z,34.86
2023-03-31T12:29:00.505Z,35.09
2023-03-31T12:31:30.558Z,37.82
2023-03-31T12:34:10.651Z,37.08
2023-03-31T12:36:46.896Z,38.24
2023-03-31T12:39:35.979Z,37.54
2023-03-31T12:42:47.623Z,36.01
2023-03-31T12:46:01.735Z,34.18
2023-03-31T12:48:40.123Z,35.91
2023-03-31T12:51:41.770Z,37.92
2023-03-31T12:54:40.651Z,34.72
2023-03-31T12:57:08.056Z,36.30
2023-03-31T12:59:43.676Z,35.11
2023-03-31T13:02:14.899Z,33.56
2023-03-31T13:04:43.185Z,32.24
2023-03-31T13:07:28.260Z,32.14
2023-03-31T13:10:12.733Z,32.96
2023-03-31T13:12:40.251Z,32.48
2023-03-31T13:15:14.775Z,33.61
2023-03-31T13:17:57.365Z,32.20
2023-03-31T13:20:38.884Z,30.95
2023-03-31T13:23:11.450Z,30.83
2023-03-31T13:25:49.697Z,31.36
2023-03-31T13:28:22.926Z,32.82
2023-03-31T13:30:56.363Z,30.84
2023-03-31T13:33:37.314Z,29.59
2023-03-31T13:36:29.251Z,28.03
2023-03-31T13:39:08.436Z,28.59
2023-03-31T13:41:56.354Z,30.01
2023-03-31T13:44:54.081Z,29.34
2023-03-31T13:47:46.815Z,28.75
2023-03-31T13:50:36.090Z,30.18
2023-03-31T13:53:15.481Z,31.09
2023-03-31T13:55:56.685Z,28.59
2023-03-31T13:58:34.252Z,29.15
2023-03-31T14:01:45.714Z,29.72
2023-03-31T14:04:35.098Z,27.81
2023-03-31T14:07:30.530Z,32.49
2023-03-31T14:09:59.507Z,32.83
2023-03-31T14:12:37.931Z,33.62
2023-03-31T14:15:07.746Z,31.02
2023-03-31T14:17:38.890Z,34.01
2023-03-31T14:20:10.719Z,33.64
2023-03-31T14:22:59.960Z,32.57
2023-03-31T14:25:59.718Z,32.71
2023-03-31T14:29:12.604Z,31.31
2023-03-31T14:31:52.103Z,33.04
2023-03-31T14:34:28.409Z,32.77
2023-03-31T14:37:00.193Z,33.29
2023-03-31T14:39:32.811Z,29.74
2023-03-31T14:42:06.754Z,32.28
2023-03-31T14:44:34.923Z,31.75
2023-03-31T14:47:02.265Z,32.27
2023-03-31T14:49:39.711Z,30.35
2023-03-31T14:52:18.817Z,31.55
2023-03-31T14:54:47.667Z,28.97
2023-03-31T14:57:27.915Z,31.47
2023-03-31T14:59:55.925Z,31.34
2023-03-31T15:02:36.738Z,27.99
2023-03-31T15:05:07.635Z,31.23
2023-03-31T15:07:36.235Z,27.97
2023-03-31T15:10:06.241Z,27.43
2023-03-31T15:12:33.944Z,26.87
2023-03-31T15:15:07.112Z,25.87
2023-03-31T15:17:40.529Z,25.43
2023-03-31T15:20:38.655Z,26.58
2023-03-31T15:23:27.719Z,25.20
2023-03-31T15:26:04.124Z,24.97
2023-03-31T15:28:49.238Z,23.65
2023-03-31T15:31:17.161Z,24.24
2023-03-31T15:33:44.775Z,22.37
2023-03-31T15:36:13.264Z,23.61
2023-03-31T15:38:41.309Z,24.22
2023-03-31T15:41:16.949Z,23.58
2023-03-31T15:43:53.197Z,25.38
2023-03-31T15:46:39.291Z,24.26
2023-03-31T15:49:23.696Z,22.93
2023-03-31T15:51:53.060Z,24.09
2023-03-31T15:54:40.990Z,24.45
2023-03-31T15:57:10.205Z,23.72
2023-03-31T15:59:56.053Z,23.94
2023-03-31T16:02:27.968Z,23.04
2023-03-31T16:04:59.017Z,23.41
2023-03-31T16:07:30.684Z,22.52
2023-03-31T16:10:06.300Z,21.72
2023-03-31T16:12:59.627Z,22.94
2023-03-31T16:15:38.209Z,22.73
2023-03-31T16:18:13.677Z,22.81
2023-03-31T16:20:53.726Z,22.14
2023-03-31T16:23:28.069Z,23.03
2023-03-31T16:25:56.524Z,22.81
2023-03-31T16:28:27.226Z,23.34
2023-03-31T16:30:54.769Z,22.83
2023-03-31T16:33:24.517Z,22.21
2023-03-31T16:35:56.062Z,22.77
2023-03-31T16:38:28.808Z,22.62
2023-03-31T16:40:59.146Z,23.03
2023-03-31T16:43:31.326Z,21.85
2023-03-31T16:46:03.345Z,21.55
2023-03-31T16:48:36.332Z,21.37
2023-03-31T16:51:04.230Z,20.93
2023-03-31T16:53:34.518Z,20.89
2023-03-31T16:56:02.691Z,21.12
2023-03-31T16:58:30.414Z,20.69
2023-03-31T17:00:58.653Z,20.73
2023-03-31T17:03:26.587Z,21.65
2023-03-31T17:05:59.001Z,20.85
2023-03-31T17:08:28.209Z,21.41
2023-03-31T17:11:04.489Z,20.46
2023-03-31T17:13:32.583Z,20.46
2023-03-31T17:16:08.674Z,21.63
2023-03-31T17:18:43.649Z,21.44
2023-03-31T17:21:13.837Z,22.54
2023-03-31T17:23:41.584Z,21.38
2023-03-31T17:26:15.964Z,22.59
2023-03-31T17:28:43.805Z,22.75
2023-03-31T17:31:21.752Z,21.72
2023-03-31T17:33:49.315Z,21.74
2023-03-31T17:36:17.241Z,22.60
2023-03-31T17:38:45.061Z,22.41
2023-03-31T17:41:13.361Z,21.92
2023-03-31T17:43:44.439Z,21.87
2023-03-31T17:46:13.193Z,21.37
2023-03-31T17:48:41.958Z,21.50
2023-03-31T17:51:15.941Z,22.96
2023-03-31T17:53:45.375Z,20.99
2023-03-31T17:56:13.681Z,22.09
2023-03-31T17:58:41.544Z,22.35
2023-03-31T18:01:13.809Z,20.53
2023-03-31T18:03:41.331Z,20.87
2023-03-31T18:06:13.878Z,21.01
2023-03-31T18:08:42.953Z,21.66
2023-03-31T18:11:13.435Z,21.46
2023-03-31T18:13:41.618Z,21.23
2023-03-31T18:16:10.255Z,20.68
2023-03-31T18:18:37.916Z,20.88
2023-03-31T18:21:08.026Z,18.92
2023-03-31T18:23:35.902Z,19.12
2023-03-31T18:26:07.087Z,20.78
2023-03-31T18:28:34.458Z,20.76
2023-03-31T18:31:07.873Z,20.18
2023-03-31T18:33:38.297Z,20.71
2023-03-31T18:36:07.373Z,20.45
2023-03-31T18:38:36.902Z,20.05
2023-03-31T18:41:04.625Z,19.69
2023-03-31T18:43:33.385Z,19.04
2023-03-31T18:46:02.411Z,21.33
2023-03-31T18:48:30.175Z,21.60
2023-03-31T18:50:57.819Z,21.65
2023-03-31T18:53:25.940Z,20.90
2023-03-31T18:55:58.641Z,21.57
2023-03-31T18:58:29.182Z,21.82
2023-03-31T19:00:58.064Z,21.64
2023-03-31T19:03:27.073Z,20.67
2023-03-31T19:06:06.091Z,21.77
2023-03-31T19:08:33.544Z,20.82
2023-03-31T19:11:15.652Z,21.36
2023-03-31T19:13:44.022Z,20.05
2023-03-31T19:16:13.175Z,20.89
2023-03-31T19:18:41.090Z,21.02
2023-03-31T19:21:08.481Z,20.11
2023-03-31T19:23:35.962Z,20.11
2023-03-31T19:26:03.906Z,18.79
2023-03-31T19:28:31.693Z,20.19
2023-03-31T19:30:59.465Z,20.59
2023-03-31T19:33:27.642Z,20.19
2023-03-31T19:35:55.085Z,19.82
2023-03-31T19:38:22.530Z,19.13
2023-03-31T19:40:50.054Z,19.65
2023-03-31T19:43:23.714Z,20.57
2023-03-31T19:45:56.889Z,19.94
2023-03-31T19:48:26.472Z,19.27
2023-03-31T19:51:03.966Z,20.36
2023-03-31T19:53:31.709Z,18.78
2023-03-31T19:56:07.999Z,20.72
2023-03-31T19:58:36.580Z,20.03
2023-03-31T20:01:14.575Z,21.10
2023-03-31T20:03:42.088Z,20.56
2023-03-31T20:06:13.023Z,21.12
2023-03-31T20:08:42.559Z,18.41
2023-03-31T20:11:13.427Z,20.33
2023-03-31T20:13:42.562Z,20.66
2023-03-31T20:16:19.103Z,20.02
2023-03-31T20:19:01.202Z,20.36
2023-03-31T20:21:31.418Z,20.46
2023-03-31T20:23:59.015Z,21.06
2023-03-31T20:26:30.881Z,21.47
2023-03-31T20:28:58.869Z,20.22
2023-03-31T20:31:29.848Z,21.15
2023-03-31T20:33:57.725Z,20.63
2023-03-31T20:36:29.763Z,20.58
2023-03-31T20:38:57.628Z,20.19
2023-03-31T20:41:28.336Z,20.75
2023-03-31T20:43:55.942Z,19.57
2023-03-31T20:46:23.511Z,21.11
2023-03-31T20:48:54.990Z,19.61
2023-03-31T20:51:29.479Z,20.05
2023-03-31T20:53:58.446Z,20.42
2023-03-31T20:56:36.913Z,20.59
2023-03-31T20:59:06.912Z,20.81
2023-03-31T21:01:36.638Z,20.63
2023-03-31T21:04:06.686Z,19.72
2023-03-31T21:06:43.299Z,20.03
2023-03-31T21:09:12.244Z,20.38
2023-03-31T21:11:40.768Z,20.02
2023-03-31T21:14:12.679Z,18.76
2023-03-31T21:16:40.283Z,20.29
2023-03-31T21:19:07.713Z,20.03
2023-03-31T21:21:36.165Z,18.92
2023-03-31T21:24:03.955Z,19.88
2023-03-31T21:26:31.369Z,19.43
2023-03-31T21:28:59.249Z,18.74
2023-03-31T21:31:27.591Z,20.11
2023-03-31T21:33:57.543Z,20.21
2023-03-31T21:36:25.492Z,19.90
2023-03-31T21:38:54.512Z,19.75
2023-03-31T21:41:26.309Z,18.86
2023-03-31T21:43:54.679Z,19.72
2023-03-31T21:46:27.850Z,19.65
2023-03-31T21:48:56.450Z,19.58
2023-03-31T21:51:24.295Z,18.08
2023-03-31T21:53:55.108Z,19.79
2023-03-31T21:56:24.429Z,19.47
2023-03-31T21:58:51.979Z,20.11
2023-03-31T22:01:19.747Z,18.83
2023-03-31T22:03:48.704Z,20.42
2023-03-31T22:06:16.506Z,19.48
2023-03-31T22:08:44.006Z,18.80
2023-03-31T22:11:12.784Z,19.43
2023-03-31T22:13:40.674Z,34.58
2023-03-31T22:16:19.469Z,35.06
2023-03-31T22:18:47.666Z,31.81
2023-03-31T22:21:23.826Z,32.78
2023-03-31T22:23:52.755Z,29.82
2023-03-31T22:26:20.478Z,31.74
2023-03-31T22:28:48.132Z,31.75
2023-03-31T22:31:15.932Z,31.18
2023-03-31T22:33:43.458Z,29.87
2023-03-31T22:36:11.168Z,33.49
2023-03-31T22:38:38.596Z,29.79
2023-03-31T22:41:06.736Z,30.65
2023-03-31T22:43:34.265Z,31.05
2023-03-31T22:46:06.920Z,31.10
2023-03-31T22:48:34.781Z,30.71
2023-03-31T22:51:06.093Z,31.60
2023-03-31T22:53:33.742Z,29.68
2023-03-31T22:56:09.957Z,32.13
2023-03-31T22:58:37.670Z,31.44
2023-03-31T23:01:06.818Z,32.44
2023-03-31T23:03:34.545Z,31.59
2023-03-31T23:06:06.215Z,31.68
2023-03-31T23:08:35.744Z,30.16
2023-03-31T23:11:05.268Z,28.49
2023-03-31T23:13:32.770Z,30.75
2023-03-31T23:16:08.893Z,30.11
2023-03-31T23:18:39.273Z,31.72
2023-03-31T23:21:07.517Z,30.26
2023-03-31T23:23:34.890Z,30.24
2023-03-31T23:26:06.424Z,31.04
2023-03-31T23:28:38.015Z,30.72
2023-03-31T23:31:05.506Z,30.55
2023-03-31T23:33:32.994Z,31.35
2023-03-31T23:36:06.049Z,31.79
2023-03-31T23:38:33.684Z,30.52
2023-03-31T23:41:02.314Z,31.44
2023-03-31T23:43:30.220Z,30.34
2023-03-31T23:45:57.632Z,29.36
2023-03-31T23:48:25.010Z,28.72
2023-03-31T23:50:52.496Z,30.57
2023-03-31T23:53:19.990Z,28.92
2023-03-31T23:55:54.620Z,31.04
2023-03-31T23:58:22.427Z,30.81
